sensor_id;sensor_type;location;lat;lon;timestamp;P1;durP1;ratioP1;P2;durP2;ratioP2
77522;SDS011;66637;-29.628;-49.938;2024-01-16T00:00:11;3.90;;;1.50;;
77522;SDS011;66637;-29.628;-49.938;2024-01-16T00:02:45;3.55;;;1.80;;
77522;SDS011;66637;-29.628;-49.938;2024-01-16T00:05:15;2.95;;;1.60;;
77522;SDS011;66637;-29.628;-49.938;2024-01-16T00:07:47;2.58;;;1.40;;
77522;SDS011;66637;-29.628;-49.938;2024-01-16T00:10:18;3.20;;;1.55;;
77522;SDS011;66637;-29.628;-49.938;2024-01-16T00:12:51;6.30;;;1.55;;
77522;SDS011;66637;-29.628;-49.938;2024-01-16T00:15:22;3.28;;;1.45;;
77522;SDS011;66637;-29.628;-49.938;2024-01-16T00:17:52;2.05;;;1.60;;
77522;SDS011;66637;-29.628;-49.938;2024-01-16T00:20:25;3.08;;;1.40;;
77522;SDS011;66637;-29.628;-49.938;2024-01-16T00:22:55;3.85;;;1.35;;
77522;SDS011;66637;-29.628;-49.938;2024-01-16T00:25:29;6.35;;;1.30;;
77522;SDS011;66637;-29.628;-49.938;2024-01-16T00:28:00;3.25;;;1.52;;
77522;SDS011;66637;-29.628;-49.938;2024-01-16T00:30:48;4.80;;;1.40;;
77522;SDS011;66637;-29.628;-49.938;2024-01-16T00:33:19;4.50;;;1.38;;
77522;SDS011;66637;-29.628;-49.938;2024-01-16T00:35:49;5.45;;;1.50;;
77522;SDS011;66637;-29.628;-49.938;2024-01-16T00:38:28;3.15;;;1.38;;
77522;SDS011;66637;-29.628;-49.938;2024-01-16T00:41:08;3.17;;;1.40;;
77522;SDS011;66637;-29.628;-49.938;2024-01-16T00:43:44;2.90;;;1.25;;
77522;SDS011;66637;-29.628;-49.938;2024-01-16T00:46:17;3.47;;;1.27;;
77522;SDS011;66637;-29.628;-49.938;2024-01-16T00:48:51;2.90;;;1.40;;
77522;SDS011;66637;-29.628;-49.938;2024-01-16T00:51:24;3.25;;;1.45;;
77522;SDS011;66637;-29.628;-49.938;2024-01-16T00:53:57;2.97;;;1.42;;
77522;SDS011;66637;-29.628;-49.938;2024-01-16T00:56:35;3.42;;;1.40;;
77522;SDS011;66637;-29.628;-49.938;2024-01-16T00:59:07;3.03;;;1.65;;
77522;SDS011;66637;-29.628;-49.938;2024-01-16T01:01:38;4.07;;;1.85;;
77522;SDS011;66637;-29.628;-49.938;2024-01-16T01:04:09;3.40;;;1.88;;
77522;SDS011;66637;-29.628;-49.938;2024-01-16T01:06:41;4.80;;;2.25;;
77522;SDS011;66637;-29.628;-49.938;2024-01-16T01:09:12;4.30;;;2.50;;
77522;SDS011;66637;-29.628;-49.938;2024-01-16T01:11:48;6.63;;;2.17;;
77522;SDS011;66637;-29.628;-49.938;2024-01-16T01:14:19;5.13;;;1.92;;
77522;SDS011;66637;-29.628;-49.938;2024-01-16T01:16:51;6.38;;;2.15;;
77522;SDS011;66637;-29.628;-49.938;2024-01-16T01:19:25;6.00;;;2.00;;
77522;SDS011;66637;-29.628;-49.938;2024-01-16T01:21:57;6.72;;;1.52;;
77522;SDS011;66637;-29.628;-49.938;2024-01-16T01:24:30;5.22;;;1.50;;
77522;SDS011;66637;-29.628;-49.938;2024-01-16T01:27:04;4.60;;;1.65;;
77522;SDS011;66637;-29.628;-49.938;2024-01-16T01:29:39;3.95;;;1.27;;
77522;SDS011;66637;-29.628;-49.938;2024-01-16T01:32:13;5.60;;;1.60;;
77522;SDS011;66637;-29.628;-49.938;2024-01-16T01:34:46;4.82;;;1.30;;
77522;SDS011;66637;-29.628;-49.938;2024-01-16T01:37:43;1.48;;;1.30;;
77522;SDS011;66637;-29.628;-49.938;2024-01-16T01:40:19;3.85;;;1.42;;
77522;SDS011;66637;-29.628;-49.938;2024-01-16T01:42:54;2.20;;;1.35;;
77522;SDS011;66637;-29.628;-49.938;2024-01-16T01:45:32;2.60;;;1.20;;
77522;SDS011;66637;-29.628;-49.938;2024-01-16T01:48:03;3.10;;;1.42;;
77522;SDS011;66637;-29.628;-49.938;2024-01-16T01:50:36;3.53;;;1.23;;
77522;SDS011;66637;-29.628;-49.938;2024-01-16T01:53:09;2.67;;;1.30;;
77522;SDS011;66637;-29.628;-49.938;2024-01-16T01:55:47;5.80;;;1.63;;
77522;SDS011;66637;-29.628;-49.938;2024-01-16T01:58:18;1.90;;;1.25;;
77522;SDS011;66637;-29.628;-49.938;2024-01-16T02:01:00;2.10;;;1.30;;
77522;SDS011;66637;-29.628;-49.938;2024-01-16T02:08:01;2.00;;;1.38;;
77522;SDS011;66637;-29.628;-49.938;2024-01-16T02:10:45;3.08;;;1.50;;
77522;SDS011;66637;-29.628;-49.938;2024-01-16T02:14:27;5.18;;;1.60;;
77522;SDS011;66637;-29.628;-49.938;2024-01-16T02:17:23;5.05;;;1.70;;
77522;SDS011;66637;-29.628;-49.938;2024-01-16T02:20:07;2.33;;;1.40;;
77522;SDS011;66637;-29.628;-49.938;2024-01-16T02:37:47;4.35;;;1.70;;
77522;SDS011;66637;-29.628;-49.938;2024-01-16T02:40:21;3.78;;;1.60;;
77522;SDS011;66637;-29.628;-49.938;2024-01-16T02:43:07;2.58;;;1.35;;
77522;SDS011;66637;-29.628;-49.938;2024-01-16T02:46:20;4.47;;;1.40;;
77522;SDS011;66637;-29.628;-49.938;2024-01-16T02:50:00;4.45;;;1.60;;
77522;SDS011;66637;-29.628;-49.938;2024-01-16T02:52:42;3.60;;;1.80;;
77522;SDS011;66637;-29.628;-49.938;2024-01-16T02:55:12;2.65;;;1.27;;
77522;SDS011;66637;-29.628;-49.938;2024-01-16T02:57:43;6.53;;;1.60;;
77522;SDS011;66637;-29.628;-49.938;2024-01-16T03:00:15;5.68;;;1.52;;
77522;SDS011;66637;-29.628;-49.938;2024-01-16T03:02:49;11.55;;;2.40;;
77522;SDS011;66637;-29.628;-49.938;2024-01-16T03:05:26;21.88;;;2.40;;
77522;SDS011;66637;-29.628;-49.938;2024-01-16T03:08:08;29.35;;;3.53;;
77522;SDS011;66637;-29.628;-49.938;2024-01-16T03:10:58;33.72;;;4.10;;
77522;SDS011;66637;-29.628;-49.938;2024-01-16T03:13:49;32.95;;;3.90;;
77522;SDS011;66637;-29.628;-49.938;2024-01-16T03:16:32;48.00;;;5.53;;
77522;SDS011;66637;-29.628;-49.938;2024-01-16T03:19:11;57.45;;;6.88;;
77522;SDS011;66637;-29.628;-49.938;2024-01-16T03:22:01;64.00;;;7.10;;
77522;SDS011;66637;-29.628;-49.938;2024-01-16T03:24:38;68.57;;;6.55;;
77522;SDS011;66637;-29.628;-49.938;2024-01-16T03:27:23;54.08;;;6.72;;
77522;SDS011;66637;-29.628;-49.938;2024-01-16T03:29:57;25.63;;;3.83;;
77522;SDS011;66637;-29.628;-49.938;2024-01-16T03:32:38;21.08;;;2.92;;
77522;SDS011;66637;-29.628;-49.938;2024-01-16T03:35:14;20.98;;;3.10;;
77522;SDS011;66637;-29.628;-49.938;2024-01-16T03:37:54;16.67;;;2.60;;
77522;SDS011;66637;-29.628;-49.938;2024-01-16T03:40:30;24.23;;;4.13;;
77522;SDS011;66637;-29.628;-49.938;2024-01-16T03:43:06;32.30;;;4.32;;
77522;SDS011;66637;-29.628;-49.938;2024-01-16T03:48:37;24.90;;;3.53;;
77522;SDS011;66637;-29.628;-49.938;2024-01-16T03:51:16;12.55;;;2.50;;
77522;SDS011;66637;-29.628;-49.938;2024-01-16T03:57:00;13.60;;;2.33;;
77522;SDS011;66637;-29.628;-49.938;2024-01-16T03:59:32;6.80;;;2.22;;
77522;SDS011;66637;-29.628;-49.938;2024-01-16T04:02:16;7.53;;;2.03;;
77522;SDS011;66637;-29.628;-49.938;2024-01-16T04:04:52;6.13;;;2.13;;
77522;SDS011;66637;-29.628;-49.938;2024-01-16T04:07:30;6.07;;;1.77;;
77522;SDS011;66637;-29.628;-49.938;2024-01-16T04:17:56;3.47;;;1.70;;
77522;SDS011;66637;-29.628;-49.938;2024-01-16T04:20:32;5.75;;;1.73;;
77522;SDS011;66637;-29.628;-49.938;2024-01-16T04:23:10;2.75;;;1.90;;
77522;SDS011;66637;-29.628;-49.938;2024-01-16T04:25:43;3.95;;;1.80;;
77522;SDS011;66637;-29.628;-49.938;2024-01-16T04:28:15;2.75;;;1.80;;
77522;SDS011;66637;-29.628;-49.938;2024-01-16T04:30:52;4.85;;;2.00;;
77522;SDS011;66637;-29.628;-49.938;2024-01-16T04:33:24;2.83;;;1.65;;
77522;SDS011;66637;-29.628;-49.938;2024-01-16T04:36:04;5.15;;;1.75;;
77522;SDS011;66637;-29.628;-49.938;2024-01-16T04:38:42;5.57;;;1.77;;
77522;SDS011;66637;-29.628;-49.938;2024-01-16T04:41:42;6.68;;;1.80;;
77522;SDS011;66637;-29.628;-49.938;2024-01-16T04:44:13;5.05;;;1.80;;
77522;SDS011;66637;-29.628;-49.938;2024-01-16T04:47:00;5.32;;;2.05;;
77522;SDS011;66637;-29.628;-49.938;2024-01-16T04:49:38;5.20;;;1.88;;
77522;SDS011;66637;-29.628;-49.938;2024-01-16T04:52:21;2.65;;;1.67;;
77522;SDS011;66637;-29.628;-49.938;2024-01-16T04:54:58;2.58;;;1.65;;
77522;SDS011;66637;-29.628;-49.938;2024-01-16T04:57:32;2.50;;;1.63;;
77522;SDS011;66637;-29.628;-49.938;2024-01-16T05:00:23;4.47;;;1.90;;
77522;SDS011;66637;-29.628;-49.938;2024-01-16T05:03:37;3.40;;;1.90;;
77522;SDS011;66637;-29.628;-49.938;2024-01-16T05:06:13;4.57;;;1.80;;
77522;SDS011;66637;-29.628;-49.938;2024-01-16T05:08:45;6.30;;;1.80;;
77522;SDS011;66637;-29.628;-49.938;2024-01-16T05:11:19;4.22;;;1.90;;
77522;SDS011;66637;-29.628;-49.938;2024-01-16T05:13:49;6.50;;;2.10;;
77522;SDS011;66637;-29.628;-49.938;2024-01-16T05:16:33;4.60;;;1.95;;
77522;SDS011;66637;-29.628;-49.938;2024-01-16T05:19:12;3.88;;;1.98;;
77522;SDS011;66637;-29.628;-49.938;2024-01-16T05:21:54;5.95;;;2.10;;
77522;SDS011;66637;-29.628;-49.938;2024-01-16T05:28:14;7.28;;;2.10;;
77522;SDS011;66637;-29.628;-49.938;2024-01-16T05:30:46;6.25;;;2.25;;
77522;SDS011;66637;-29.628;-49.938;2024-01-16T05:33:18;4.72;;;2.40;;
77522;SDS011;66637;-29.628;-49.938;2024-01-16T05:35:54;6.93;;;2.30;;
77522;SDS011;66637;-29.628;-49.938;2024-01-16T05:38:28;3.95;;;2.42;;
77522;SDS011;66637;-29.628;-49.938;2024-01-16T05:41:04;4.30;;;2.10;;
77522;SDS011;66637;-29.628;-49.938;2024-01-16T05:47:03;2.75;;;2.40;;
77522;SDS011;66637;-29.628;-49.938;2024-01-16T06:00:57;4.18;;;2.35;;
77522;SDS011;66637;-29.628;-49.938;2024-01-16T06:03:59;6.43;;;2.38;;
77522;SDS011;66637;-29.628;-49.938;2024-01-16T06:06:42;5.78;;;2.65;;
77522;SDS011;66637;-29.628;-49.938;2024-01-16T06:09:15;6.18;;;2.70;;
77522;SDS011;66637;-29.628;-49.938;2024-01-16T06:11:46;4.28;;;2.35;;
77522;SDS011;66637;-29.628;-49.938;2024-01-16T06:14:17;5.45;;;2.60;;
77522;SDS011;66637;-29.628;-49.938;2024-01-16T06:16:51;3.53;;;2.83;;
77522;SDS011;66637;-29.628;-49.938;2024-01-16T06:19:23;6.07;;;3.00;;
77522;SDS011;66637;-29.628;-49.938;2024-01-16T06:21:56;3.92;;;2.70;;
77522;SDS011;66637;-29.628;-49.938;2024-01-16T06:24:28;8.77;;;3.10;;
77522;SDS011;66637;-29.628;-49.938;2024-01-16T06:27:05;7.75;;;3.30;;
77522;SDS011;66637;-29.628;-49.938;2024-01-16T06:33:20;4.25;;;3.10;;
77522;SDS011;66637;-29.628;-49.938;2024-01-16T06:35:51;5.65;;;2.97;;
77522;SDS011;66637;-29.628;-49.938;2024-01-16T06:38:27;4.95;;;3.45;;
77522;SDS011;66637;-29.628;-49.938;2024-01-16T06:41:02;5.85;;;3.50;;
77522;SDS011;66637;-29.628;-49.938;2024-01-16T06:43:34;5.72;;;3.33;;
77522;SDS011;66637;-29.628;-49.938;2024-01-16T06:49:05;6.60;;;3.35;;
77522;SDS011;66637;-29.628;-49.938;2024-01-16T06:51:38;7.10;;;3.60;;
77522;SDS011;66637;-29.628;-49.938;2024-01-16T06:54:10;4.57;;;2.92;;
77522;SDS011;66637;-29.628;-49.938;2024-01-16T06:56:44;3.92;;;3.10;;
77522;SDS011;66637;-29.628;-49.938;2024-01-16T06:59:15;6.82;;;3.15;;
77522;SDS011;66637;-29.628;-49.938;2024-01-16T07:01:49;6.22;;;3.50;;
77522;SDS011;66637;-29.628;-49.938;2024-01-16T07:04:21;5.80;;;3.25;;
77522;SDS011;66637;-29.628;-49.938;2024-01-16T07:07:01;5.80;;;3.30;;
77522;SDS011;66637;-29.628;-49.938;2024-01-16T07:09:43;4.97;;;3.00;;
77522;SDS011;66637;-29.628;-49.938;2024-01-16T07:12:14;8.77;;;3.50;;
77522;SDS011;66637;-29.628;-49.938;2024-01-16T07:14:45;4.28;;;3.42;;
77522;SDS011;66637;-29.628;-49.938;2024-01-16T07:17:16;8.00;;;3.53;;
77522;SDS011;66637;-29.628;-49.938;2024-01-16T07:19:48;4.10;;;3.35;;
77522;SDS011;66637;-29.628;-49.938;2024-01-16T07:22:18;4.47;;;3.22;;
77522;SDS011;66637;-29.628;-49.938;2024-01-16T07:24:49;4.32;;;3.50;;
77522;SDS011;66637;-29.628;-49.938;2024-01-16T07:27:19;4.50;;;2.90;;
77522;SDS011;66637;-29.628;-49.938;2024-01-16T07:29:49;5.53;;;3.10;;
77522;SDS011;66637;-29.628;-49.938;2024-01-16T07:32:20;4.25;;;2.63;;
77522;SDS011;66637;-29.628;-49.938;2024-01-16T07:34:50;5.78;;;3.30;;
77522;SDS011;66637;-29.628;-49.938;2024-01-16T07:37:22;8.05;;;3.53;;
77522;SDS011;66637;-29.628;-49.938;2024-01-16T07:39:52;7.28;;;3.00;;
77522;SDS011;66637;-29.628;-49.938;2024-01-16T07:42:23;3.85;;;2.78;;
77522;SDS011;66637;-29.628;-49.938;2024-01-16T07:44:55;3.80;;;3.50;;
77522;SDS011;66637;-29.628;-49.938;2024-01-16T07:47:26;6.03;;;3.03;;
77522;SDS011;66637;-29.628;-49.938;2024-01-16T07:49:57;8.05;;;3.60;;
77522;SDS011;66637;-29.628;-49.938;2024-01-16T07:52:27;7.05;;;3.40;;
77522;SDS011;66637;-29.628;-49.938;2024-01-16T07:54:57;6.60;;;3.40;;
77522;SDS011;66637;-29.628;-49.938;2024-01-16T07:57:29;5.25;;;3.60;;
77522;SDS011;66637;-29.628;-49.938;2024-01-16T08:00:00;5.15;;;3.47;;
77522;SDS011;66637;-29.628;-49.938;2024-01-16T08:02:34;5.80;;;3.28;;
77522;SDS011;66637;-29.628;-49.938;2024-01-16T08:05:05;4.93;;;2.97;;
77522;SDS011;66637;-29.628;-49.938;2024-01-16T08:07:36;7.82;;;3.22;;
77522;SDS011;66637;-29.628;-49.938;2024-01-16T08:10:08;22.35;;;4.47;;
77522;SDS011;66637;-29.628;-49.938;2024-01-16T08:12:39;19.98;;;4.22;;
77522;SDS011;66637;-29.628;-49.938;2024-01-16T08:15:09;30.10;;;5.35;;
77522;SDS011;66637;-29.628;-49.938;2024-01-16T08:17:39;46.75;;;7.63;;
77522;SDS011;66637;-29.628;-49.938;2024-01-16T08:20:11;34.17;;;6.80;;
77522;SDS011;66637;-29.628;-49.938;2024-01-16T08:22:43;37.22;;;6.03;;
77522;SDS011;66637;-29.628;-49.938;2024-01-16T08:25:13;28.58;;;5.75;;
77522;SDS011;66637;-29.628;-49.938;2024-01-16T08:27:42;29.02;;;5.97;;
77522;SDS011;66637;-29.628;-49.938;2024-01-16T08:30:13;42.97;;;7.57;;
77522;SDS011;66637;-29.628;-49.938;2024-01-16T08:32:43;36.60;;;6.50;;
77522;SDS011;66637;-29.628;-49.938;2024-01-16T08:35:14;32.47;;;6.03;;
77522;SDS011;66637;-29.628;-49.938;2024-01-16T08:37:45;32.85;;;7.03;;
77522;SDS011;66637;-29.628;-49.938;2024-01-16T08:40:16;26.90;;;5.28;;
77522;SDS011;66637;-29.628;-49.938;2024-01-16T08:42:46;35.47;;;6.03;;
77522;SDS011;66637;-29.628;-49.938;2024-01-16T08:45:24;32.10;;;5.95;;
77522;SDS011;66637;-29.628;-49.938;2024-01-16T08:47:55;31.95;;;5.75;;
77522;SDS011;66637;-29.628;-49.938;2024-01-16T08:50:25;20.13;;;5.78;;
77522;SDS011;66637;-29.628;-49.938;2024-01-16T08:52:56;29.67;;;6.43;;
77522;SDS011;66637;-29.628;-49.938;2024-01-16T08:55:27;43.30;;;6.97;;
77522;SDS011;66637;-29.628;-49.938;2024-01-16T08:57:57;38.88;;;7.38;;
77522;SDS011;66637;-29.628;-49.938;2024-01-16T09:00:27;44.13;;;7.20;;
77522;SDS011;66637;-29.628;-49.938;2024-01-16T09:02:59;33.60;;;6.78;;
77522;SDS011;66637;-29.628;-49.938;2024-01-16T09:05:33;40.90;;;6.68;;
77522;SDS011;66637;-29.628;-49.938;2024-01-16T09:08:08;35.13;;;6.80;;
77522;SDS011;66637;-29.628;-49.938;2024-01-16T09:10:41;40.72;;;6.78;;
77522;SDS011;66637;-29.628;-49.938;2024-01-16T09:13:13;34.60;;;6.93;;
77522;SDS011;66637;-29.628;-49.938;2024-01-16T09:15:49;27.08;;;6.35;;
77522;SDS011;66637;-29.628;-49.938;2024-01-16T09:18:20;31.90;;;6.43;;
77522;SDS011;66637;-29.628;-49.938;2024-01-16T09:20:51;42.67;;;6.25;;
77522;SDS011;66637;-29.628;-49.938;2024-01-16T09:23:23;28.92;;;6.40;;
77522;SDS011;66637;-29.628;-49.938;2024-01-16T09:25:57;36.80;;;6.40;;
77522;SDS011;66637;-29.628;-49.938;2024-01-16T09:28:28;33.17;;;5.75;;
77522;SDS011;66637;-29.628;-49.938;2024-01-16T09:30:59;38.20;;;6.43;;
77522;SDS011;66637;-29.628;-49.938;2024-01-16T09:33:29;38.40;;;6.60;;
77522;SDS011;66637;-29.628;-49.938;2024-01-16T09:36:00;40.45;;;7.22;;
77522;SDS011;66637;-29.628;-49.938;2024-01-16T09:38:30;34.70;;;6.90;;
77522;SDS011;66637;-29.628;-49.938;2024-01-16T09:41:01;41.20;;;6.78;;
77522;SDS011;66637;-29.628;-49.938;2024-01-16T09:43:33;34.50;;;7.03;;
77522;SDS011;66637;-29.628;-49.938;2024-01-16T09:46:05;23.02;;;5.57;;
77522;SDS011;66637;-29.628;-49.938;2024-01-16T09:48:36;28.50;;;6.90;;
77522;SDS011;66637;-29.628;-49.938;2024-01-16T09:51:08;41.05;;;7.80;;
77522;SDS011;66637;-29.628;-49.938;2024-01-16T09:53:38;37.88;;;6.90;;
77522;SDS011;66637;-29.628;-49.938;2024-01-16T09:56:11;27.17;;;4.90;;
77522;SDS011;66637;-29.628;-49.938;2024-01-16T09:58:47;28.60;;;6.47;;
77522;SDS011;66637;-29.628;-49.938;2024-01-16T10:01:19;26.02;;;5.95;;
77522;SDS011;66637;-29.628;-49.938;2024-01-16T10:03:51;30.88;;;6.50;;
77522;SDS011;66637;-29.628;-49.938;2024-01-16T10:06:20;24.35;;;5.32;;
77522;SDS011;66637;-29.628;-49.938;2024-01-16T10:08:55;36.63;;;6.45;;
77522;SDS011;66637;-29.628;-49.938;2024-01-16T10:11:25;36.47;;;6.22;;
77522;SDS011;66637;-29.628;-49.938;2024-01-16T10:13:56;34.30;;;6.10;;
77522;SDS011;66637;-29.628;-49.938;2024-01-16T10:19:27;22.55;;;4.10;;
77522;SDS011;66637;-29.628;-49.938;2024-01-16T10:22:13;32.08;;;5.20;;
77522;SDS011;66637;-29.628;-49.938;2024-01-16T10:25:04;38.58;;;6.70;;
77522;SDS011;66637;-29.628;-49.938;2024-01-16T10:27:47;34.28;;;5.18;;
77522;SDS011;66637;-29.628;-49.938;2024-01-16T10:30:21;33.55;;;5.25;;
77522;SDS011;66637;-29.628;-49.938;2024-01-16T10:32:54;29.02;;;4.65;;
77522;SDS011;66637;-29.628;-49.938;2024-01-16T10:35:28;21.88;;;4.60;;
77522;SDS011;66637;-29.628;-49.938;2024-01-16T10:37:59;21.33;;;3.78;;
77522;SDS011;66637;-29.628;-49.938;2024-01-16T10:40:29;21.50;;;3.83;;
77522;SDS011;66637;-29.628;-49.938;2024-01-16T10:43:04;21.35;;;3.72;;
77522;SDS011;66637;-29.628;-49.938;2024-01-16T10:45:35;32.42;;;4.72;;
77522;SDS011;66637;-29.628;-49.938;2024-01-16T10:48:06;26.55;;;5.72;;
77522;SDS011;66637;-29.628;-49.938;2024-01-16T10:50:38;24.08;;;5.03;;
77522;SDS011;66637;-29.628;-49.938;2024-01-16T10:53:10;10.98;;;3.03;;
77522;SDS011;66637;-29.628;-49.938;2024-01-16T10:55:51;18.00;;;3.15;;
77522;SDS011;66637;-29.628;-49.938;2024-01-16T10:58:24;18.55;;;3.65;;
77522;SDS011;66637;-29.628;-49.938;2024-01-16T11:00:56;22.48;;;4.07;;
77522;SDS011;66637;-29.628;-49.938;2024-01-16T11:03:38;18.52;;;3.25;;
77522;SDS011;66637;-29.628;-49.938;2024-01-16T11:06:14;15.95;;;3.55;;
77522;SDS011;66637;-29.628;-49.938;2024-01-16T11:08:48;24.75;;;3.85;;
77522;SDS011;66637;-29.628;-49.938;2024-01-16T11:11:21;18.13;;;3.40;;
77522;SDS011;66637;-29.628;-49.938;2024-01-16T11:13:54;26.55;;;4.13;;
77522;SDS011;66637;-29.628;-49.938;2024-01-16T11:16:25;15.02;;;3.08;;
77522;SDS011;66637;-29.628;-49.938;2024-01-16T11:18:58;24.02;;;3.30;;
77522;SDS011;66637;-29.628;-49.938;2024-01-16T11:21:48;14.85;;;2.63;;
77522;SDS011;66637;-29.628;-49.938;2024-01-16T11:24:20;16.75;;;2.55;;
77522;SDS011;66637;-29.628;-49.938;2024-01-16T11:26:51;19.27;;;2.88;;
77522;SDS011;66637;-29.628;-49.938;2024-01-16T11:31:59;25.52;;;3.90;;
77522;SDS011;66637;-29.628;-49.938;2024-01-16T11:34:53;16.65;;;2.90;;
77522;SDS011;66637;-29.628;-49.938;2024-01-16T11:37:29;19.45;;;2.72;;
77522;SDS011;66637;-29.628;-49.938;2024-01-16T11:42:53;13.60;;;2.72;;
77522;SDS011;66637;-29.628;-49.938;2024-01-16T11:48:12;10.32;;;2.20;;
77522;SDS011;66637;-29.628;-49.938;2024-01-16T11:50:45;16.10;;;2.50;;
77522;SDS011;66637;-29.628;-49.938;2024-01-16T12:01:45;16.17;;;2.30;;
77522;SDS011;66637;-29.628;-49.938;2024-01-16T12:04:18;15.98;;;2.80;;
77522;SDS011;66637;-29.628;-49.938;2024-01-16T12:06:58;18.23;;;2.42;;
77522;SDS011;66637;-29.628;-49.938;2024-01-16T12:09:29;15.23;;;2.47;;
77522;SDS011;66637;-29.628;-49.938;2024-01-16T12:12:00;17.70;;;2.88;;
77522;SDS011;66637;-29.628;-49.938;2024-01-16T12:14:32;13.20;;;2.58;;
77522;SDS011;66637;-29.628;-49.938;2024-01-16T12:17:11;9.60;;;2.53;;
77522;SDS011;66637;-29.628;-49.938;2024-01-16T12:19:43;18.02;;;2.88;;
77522;SDS011;66637;-29.628;-49.938;2024-01-16T12:22:14;25.88;;;3.67;;
77522;SDS011;66637;-29.628;-49.938;2024-01-16T12:24:46;19.23;;;3.42;;
77522;SDS011;66637;-29.628;-49.938;2024-01-16T12:27:17;20.55;;;4.07;;
77522;SDS011;66637;-29.628;-49.938;2024-01-16T12:29:48;19.92;;;3.67;;
77522;SDS011;66637;-29.628;-49.938;2024-01-16T12:32:21;18.85;;;3.72;;
77522;SDS011;66637;-29.628;-49.938;2024-01-16T12:34:54;15.65;;;2.90;;
77522;SDS011;66637;-29.628;-49.938;2024-01-16T12:37:25;16.55;;;3.60;;
77522;SDS011;66637;-29.628;-49.938;2024-01-16T12:39:58;16.33;;;3.20;;
77522;SDS011;66637;-29.628;-49.938;2024-01-16T12:42:28;14.90;;;2.63;;
77522;SDS011;66637;-29.628;-49.938;2024-01-16T12:44:58;20.33;;;3.78;;
77522;SDS011;66637;-29.628;-49.938;2024-01-16T12:47:30;19.48;;;3.47;;
77522;SDS011;66637;-29.628;-49.938;2024-01-16T12:50:00;15.40;;;3.15;;
77522;SDS011;66637;-29.628;-49.938;2024-01-16T12:52:30;16.55;;;3.42;;
77522;SDS011;66637;-29.628;-49.938;2024-01-16T12:55:02;11.55;;;2.95;;
77522;SDS011;66637;-29.628;-49.938;2024-01-16T12:57:34;16.15;;;3.95;;
77522;SDS011;66637;-29.628;-49.938;2024-01-16T13:00:22;18.35;;;3.47;;
77522;SDS011;66637;-29.628;-49.938;2024-01-16T13:02:56;17.95;;;3.60;;
77522;SDS011;66637;-29.628;-49.938;2024-01-16T13:05:29;11.18;;;3.20;;
77522;SDS011;66637;-29.628;-49.938;2024-01-16T13:08:04;10.80;;;2.72;;
77522;SDS011;66637;-29.628;-49.938;2024-01-16T13:10:38;8.68;;;2.88;;
77522;SDS011;66637;-29.628;-49.938;2024-01-16T13:13:17;13.02;;;3.67;;
77522;SDS011;66637;-29.628;-49.938;2024-01-16T13:15:49;13.95;;;4.45;;
77522;SDS011;66637;-29.628;-49.938;2024-01-16T13:18:20;11.68;;;3.90;;
77522;SDS011;66637;-29.628;-49.938;2024-01-16T13:20:52;16.25;;;4.22;;
77522;SDS011;66637;-29.628;-49.938;2024-01-16T13:23:25;19.73;;;4.35;;
77522;SDS011;66637;-29.628;-49.938;2024-01-16T13:25:57;18.25;;;3.88;;
77522;SDS011;66637;-29.628;-49.938;2024-01-16T13:28:32;16.83;;;4.13;;
77522;SDS011;66637;-29.628;-49.938;2024-01-16T13:31:04;19.48;;;4.32;;
77522;SDS011;66637;-29.628;-49.938;2024-01-16T13:33:34;14.25;;;4.05;;
77522;SDS011;66637;-29.628;-49.938;2024-01-16T13:36:04;18.65;;;4.15;;
77522;SDS011;66637;-29.628;-49.938;2024-01-16T13:38:34;18.05;;;4.57;;
77522;SDS011;66637;-29.628;-49.938;2024-01-16T13:41:05;14.15;;;4.32;;
77522;SDS011;66637;-29.628;-49.938;2024-01-16T13:43:43;15.25;;;4.65;;
77522;SDS011;66637;-29.628;-49.938;2024-01-16T13:46:14;16.98;;;4.88;;
77522;SDS011;66637;-29.628;-49.938;2024-01-16T13:49:09;18.58;;;4.82;;
77522;SDS011;66637;-29.628;-49.938;2024-01-16T13:51:43;17.02;;;4.40;;
77522;SDS011;66637;-29.628;-49.938;2024-01-16T13:54:17;16.70;;;5.10;;
77522;SDS011;66637;-29.628;-49.938;2024-01-16T13:56:48;15.07;;;5.32;;
77522;SDS011;66637;-29.628;-49.938;2024-01-16T13:59:34;18.25;;;4.95;;
77522;SDS011;66637;-29.628;-49.938;2024-01-16T14:02:09;16.38;;;4.57;;
77522;SDS011;66637;-29.628;-49.938;2024-01-16T14:04:39;17.02;;;5.13;;
77522;SDS011;66637;-29.628;-49.938;2024-01-16T14:07:10;19.73;;;5.40;;
77522;SDS011;66637;-29.628;-49.938;2024-01-16T14:09:42;12.23;;;4.43;;
77522;SDS011;66637;-29.628;-49.938;2024-01-16T14:12:14;14.98;;;4.90;;
77522;SDS011;66637;-29.628;-49.938;2024-01-16T14:14:48;12.00;;;4.50;;
77522;SDS011;66637;-29.628;-49.938;2024-01-16T14:17:23;15.75;;;5.03;;
77522;SDS011;66637;-29.628;-49.938;2024-01-16T14:19:56;19.25;;;4.43;;
77522;SDS011;66637;-29.628;-49.938;2024-01-16T14:22:29;17.42;;;4.40;;
77522;SDS011;66637;-29.628;-49.938;2024-01-16T14:24:59;18.52;;;3.85;;
77522;SDS011;66637;-29.628;-49.938;2024-01-16T14:27:42;19.35;;;5.88;;
77522;SDS011;66637;-29.628;-49.938;2024-01-16T14:30:15;15.15;;;4.55;;
77522;SDS011;66637;-29.628;-49.938;2024-01-16T14:32:53;19.70;;;4.70;;
77522;SDS011;66637;-29.628;-49.938;2024-01-16T14:35:24;13.52;;;4.68;;
77522;SDS011;66637;-29.628;-49.938;2024-01-16T14:37:58;18.25;;;4.30;;
77522;SDS011;66637;-29.628;-49.938;2024-01-16T14:40:29;12.00;;;4.25;;
77522;SDS011;66637;-29.628;-49.938;2024-01-16T14:43:03;13.80;;;3.78;;
77522;SDS011;66637;-29.628;-49.938;2024-01-16T14:45:38;14.93;;;4.40;;
77522;SDS011;66637;-29.628;-49.938;2024-01-16T14:48:15;15.43;;;4.03;;
77522;SDS011;66637;-29.628;-49.938;2024-01-16T14:50:46;15.80;;;4.35;;
77522;SDS011;66637;-29.628;-49.938;2024-01-16T14:53:20;18.95;;;4.55;;
77522;SDS011;66637;-29.628;-49.938;2024-01-16T14:55:54;14.10;;;4.13;;
77522;SDS011;66637;-29.628;-49.938;2024-01-16T14:58:25;14.50;;;4.35;;
77522;SDS011;66637;-29.628;-49.938;2024-01-16T15:00:57;15.45;;;4.65;;
77522;SDS011;66637;-29.628;-49.938;2024-01-16T15:03:31;15.18;;;5.03;;
77522;SDS011;66637;-29.628;-49.938;2024-01-16T15:06:04;15.52;;;5.68;;
77522;SDS011;66637;-29.628;-49.938;2024-01-16T15:08:38;18.48;;;5.22;;
77522;SDS011;66637;-29.628;-49.938;2024-01-16T15:11:29;16.85;;;4.93;;
77522;SDS011;66637;-29.628;-49.938;2024-01-16T15:14:19;16.42;;;4.70;;
77522;SDS011;66637;-29.628;-49.938;2024-01-16T15:17:07;9.88;;;4.22;;
77522;SDS011;66637;-29.628;-49.938;2024-01-16T15:20:00;12.23;;;4.20;;
77522;SDS011;66637;-29.628;-49.938;2024-01-16T15:22:40;13.30;;;4.40;;
77522;SDS011;66637;-29.628;-49.938;2024-01-16T15:25:29;16.95;;;4.43;;
77522;SDS011;66637;-29.628;-49.938;2024-01-16T15:28:07;12.15;;;3.70;;
77522;SDS011;66637;-29.628;-49.938;2024-01-16T15:30:50;10.75;;;3.40;;
77522;SDS011;66637;-29.628;-49.938;2024-01-16T15:33:29;15.77;;;3.83;;
77522;SDS011;66637;-29.628;-49.938;2024-01-16T15:36:00;9.90;;;3.42;;
77522;SDS011;66637;-29.628;-49.938;2024-01-16T15:38:33;13.82;;;3.67;;
77522;SDS011;66637;-29.628;-49.938;2024-01-16T15:43:47;19.33;;;4.30;;
77522;SDS011;66637;-29.628;-49.938;2024-01-16T15:46:17;16.00;;;4.32;;
77522;SDS011;66637;-29.628;-49.938;2024-01-16T15:48:48;20.70;;;4.57;;
77522;SDS011;66637;-29.628;-49.938;2024-01-16T15:51:20;15.82;;;3.92;;
77522;SDS011;66637;-29.628;-49.938;2024-01-16T15:53:50;18.55;;;3.95;;
77522;SDS011;66637;-29.628;-49.938;2024-01-16T15:56:22;20.52;;;3.97;;
77522;SDS011;66637;-29.628;-49.938;2024-01-16T15:58:53;16.90;;;4.07;;
77522;SDS011;66637;-29.628;-49.938;2024-01-16T16:01:25;17.52;;;4.10;;
77522;SDS011;66637;-29.628;-49.938;2024-01-16T16:03:57;20.98;;;4.57;;
77522;SDS011;66637;-29.628;-49.938;2024-01-16T16:06:33;11.80;;;3.60;;